sensor_id;sensor_type;location;lat;lon;timestamp;pressure;altitude;pressure_sealevel;temperature;humidity
19508;BME280;40157;42.566;27.526;2023-02-14T00:00:26;102520.19;;;2.55;55.21
19508;BME280;40157;42.566;27.526;2023-02-14T00:02:27;102519.09;;;2.63;55.10
19508;BME280;40157;42.566;27.526;2023-02-14T00:04:27;102517.53;;;2.65;54.82
19508;BME280;40157;42.566;27.526;2023-02-14T00:06:30;102504.75;;;2.56;54.12
19508;BME280;40157;42.566;27.526;2023-02-14T00:08:32;102509.50;;;2.62;54.25
19508;BME280;40157;42.566;27.526;2023-02-14T00:10:32;102520.34;;;2.68;53.91
19508;BME280;40157;42.566;27.526;2023-02-14T00:12:32;102525.28;;;2.65;53.70
19508;BME280;40157;42.566;27.526;2023-02-14T00:14:33;102509.25;;;2.59;54.13
19508;BME280;40157;42.566;27.526;2023-02-14T00:16:52;102526.88;;;2.63;54.63
19508;BME280;40157;42.566;27.526;2023-02-14T00:18:53;102492.56;;;2.44;54.66
19508;BME280;40157;42.566;27.526;2023-02-14T00:21:02;102527.63;;;2.62;54.18
19508;BME280;40157;42.566;27.526;2023-02-14T00:23:03;102525.56;;;2.58;53.98
19508;BME280;40157;42.566;27.526;2023-02-14T00:25:04;102526.13;;;2.54;54.10
19508;BME280;40157;42.566;27.526;2023-02-14T00:27:05;102524.06;;;2.50;54.80
19508;BME280;40157;42.566;27.526;2023-02-14T00:29:07;102528.47;;;2.51;54.60
19508;BME280;40157;42.566;27.526;2023-02-14T00:31:08;102520.91;;;2.42;55.90
19508;BME280;40157;42.566;27.526;2023-02-14T00:33:08;102508.16;;;2.33;57.97
19508;BME280;40157;42.566;27.526;2023-02-14T00:35:09;102511.06;;;2.16;60.68
19508;BME280;40157;42.566;27.526;2023-02-14T00:37:09;102501.47;;;1.93;62.44
19508;BME280;40157;42.566;27.526;2023-02-14T00:39:11;102517.50;;;1.99;63.00
19508;BME280;40157;42.566;27.526;2023-02-14T00:41:12;102514.34;;;2.13;62.90
19508;BME280;40157;42.566;27.526;2023-02-14T00:43:18;102518.53;;;2.23;62.79
19508;BME280;40157;42.566;27.526;2023-02-14T00:45:18;102506.22;;;2.31;62.45
19508;BME280;40157;42.566;27.526;2023-02-14T00:47:19;102507.84;;;2.40;62.25
19508;BME280;40157;42.566;27.526;2023-02-14T00:49:20;102513.25;;;2.44;62.22
19508;BME280;40157;42.566;27.526;2023-02-14T00:51:21;102511.56;;;2.44;61.82
19508;BME280;40157;42.566;27.526;2023-02-14T00:53:21;102510.78;;;2.45;61.78
19508;BME280;40157;42.566;27.526;2023-02-14T00:55:21;102495.66;;;2.39;62.25
19508;BME280;40157;42.566;27.526;2023-02-14T00:57:22;102497.03;;;2.46;61.58
19508;BME280;40157;42.566;27.526;2023-02-14T00:59:22;102473.41;;;2.42;61.40
19508;BME280;40157;42.566;27.526;2023-02-14T01:01:23;102484.09;;;2.46;61.47
19508;BME280;40157;42.566;27.526;2023-02-14T01:03:23;102482.66;;;2.50;61.06
19508;BME280;40157;42.566;27.526;2023-02-14T01:05:24;102477.47;;;2.50;61.06
19508;BME280;40157;42.566;27.526;2023-02-14T01:07:24;102490.00;;;2.55;60.81
19508;BME280;40157;42.566;27.526;2023-02-14T01:09:25;102486.03;;;2.49;61.12
19508;BME280;40157;42.566;27.526;2023-02-14T01:11:25;102467.03;;;2.26;61.98
19508;BME280;40157;42.566;27.526;2023-02-14T01:13:26;102463.47;;;2.36;62.05
19508;BME280;40157;42.566;27.526;2023-02-14T01:15:27;102470.22;;;2.34;62.41
19508;BME280;40157;42.566;27.526;2023-02-14T01:17:27;102445.44;;;2.26;62.51
19508;BME280;40157;42.566;27.526;2023-02-14T01:19:27;102454.00;;;2.36;62.24
19508;BME280;40157;42.566;27.526;2023-02-14T01:21:30;102448.97;;;2.38;61.90
19508;BME280;40157;42.566;27.526;2023-02-14T01:23:31;102436.69;;;2.35;61.79
19508;BME280;40157;42.566;27.526;2023-02-14T01:25:32;102451.38;;;2.47;61.15
19508;BME280;40157;42.566;27.526;2023-02-14T01:27:32;102450.56;;;2.48;61.05
19508;BME280;40157;42.566;27.526;2023-02-14T01:29:33;102435.03;;;2.48;61.17
19508;BME280;40157;42.566;27.526;2023-02-14T01:31:34;102426.25;;;2.46;60.90
19508;BME280;40157;42.566;27.526;2023-02-14T01:33:35;102413.97;;;2.43;61.20
19508;BME280;40157;42.566;27.526;2023-02-14T01:35:38;102425.13;;;2.42;61.45
19508;BME280;40157;42.566;27.526;2023-02-14T01:37:39;102427.13;;;2.34;61.82
19508;BME280;40157;42.566;27.526;2023-02-14T01:39:40;102405.78;;;2.15;62.05
19508;BME280;40157;42.566;27.526;2023-02-14T01:41:42;102426.19;;;2.22;62.03
19508;BME280;40157;42.566;27.526;2023-02-14T01:44:04;102427.44;;;2.27;62.09
19508;BME280;40157;42.566;27.526;2023-02-14T01:46:05;102412.00;;;2.17;62.33
19508;BME280;40157;42.566;27.526;2023-02-14T01:48:05;102408.72;;;2.19;62.35
19508;BME280;40157;42.566;27.526;2023-02-14T01:50:11;102414.38;;;2.26;61.99
19508;BME280;40157;42.566;27.526;2023-02-14T01:52:20;102405.84;;;2.04;62.66
19508;BME280;40157;42.566;27.526;2023-02-14T01:54:23;102386.19;;;2.07;62.83
19508;BME280;40157;42.566;27.526;2023-02-14T01:56:29;102408.84;;;2.21;62.72
19508;BME280;40157;42.566;27.526;2023-02-14T01:58:37;102402.91;;;2.22;62.32
19508;BME280;40157;42.566;27.526;2023-02-14T02:00:39;102411.78;;;2.26;62.42
19508;BME280;40157;42.566;27.526;2023-02-14T02:02:58;102401.75;;;2.18;62.31
19508;BME280;40157;42.566;27.526;2023-02-14T02:05:00;102394.66;;;2.16;62.08
19508;BME280;40157;42.566;27.526;2023-02-14T02:07:04;102405.97;;;2.28;62.27
19508;BME280;40157;42.566;27.526;2023-02-14T02:11:32;102397.72;;;2.22;61.88
19508;BME280;40157;42.566;27.526;2023-02-14T02:13:33;102388.69;;;2.17;61.99
19508;BME280;40157;42.566;27.526;2023-02-14T02:15:40;102402.41;;;2.16;62.04
19508;BME280;40157;42.566;27.526;2023-02-14T02:17:51;102389.47;;;2.16;62.61
19508;BME280;40157;42.566;27.526;2023-02-14T02:20:22;102395.41;;;2.15;62.83
19508;BME280;40157;42.566;27.526;2023-02-14T02:41:14;102389.94;;;1.34;62.65
19508;BME280;40157;42.566;27.526;2023-02-14T02:46:00;102390.78;;;1.12;64.74
19508;BME280;40157;42.566;27.526;2023-02-14T02:48:20;102385.38;;;1.09;65.34
19508;BME280;40157;42.566;27.526;2023-02-14T02:55:08;102372.31;;;1.07;67.77
19508;BME280;40157;42.566;27.526;2023-02-14T02:57:21;102367.66;;;1.14;68.31
19508;BME280;40157;42.566;27.526;2023-02-14T02:59:28;102371.13;;;1.14;68.29
19508;BME280;40157;42.566;27.526;2023-02-14T03:01:37;102356.19;;;1.10;68.49
19508;BME280;40157;42.566;27.526;2023-02-14T03:03:44;102367.25;;;1.19;68.02
19508;BME280;40157;42.566;27.526;2023-02-14T03:06:04;102350.31;;;1.23;67.94
19508;BME280;40157;42.566;27.526;2023-02-14T03:08:05;102343.47;;;1.23;67.93
19508;BME280;40157;42.566;27.526;2023-02-14T03:10:17;102343.69;;;1.26;67.98
19508;BME280;40157;42.566;27.526;2023-02-14T03:14:56;102341.31;;;1.40;67.00
19508;BME280;40157;42.566;27.526;2023-02-14T03:22:07;102336.00;;;1.48;67.82
19508;BME280;40157;42.566;27.526;2023-02-14T03:34:04;102340.38;;;1.72;67.66
19508;BME280;40157;42.566;27.526;2023-02-14T03:36:12;102322.56;;;1.64;67.73
19508;BME280;40157;42.566;27.526;2023-02-14T03:38:20;102323.59;;;1.66;67.61
19508;BME280;40157;42.566;27.526;2023-02-14T03:42:43;102306.59;;;1.58;67.04
19508;BME280;40157;42.566;27.526;2023-02-14T03:44:47;102331.59;;;1.70;67.08
19508;BME280;40157;42.566;27.526;2023-02-14T03:46:57;102318.66;;;1.70;67.09
19508;BME280;40157;42.566;27.526;2023-02-14T03:49:03;102327.56;;;1.73;66.96
19508;BME280;40157;42.566;27.526;2023-02-14T03:51:07;102324.47;;;1.55;67.39
19508;BME280;40157;42.566;27.526;2023-02-14T03:53:10;102312.06;;;1.29;68.43
19508;BME280;40157;42.566;27.526;2023-02-14T03:55:15;102310.66;;;1.22;68.65
19508;BME280;40157;42.566;27.526;2023-02-14T03:57:45;102315.41;;;0.96;69.57
19508;BME280;40157;42.566;27.526;2023-02-14T03:59:48;102301.75;;;0.86;70.41
19508;BME280;40157;42.566;27.526;2023-02-14T04:01:55;102277.28;;;0.71;70.56
19508;BME280;40157;42.566;27.526;2023-02-14T04:03:59;102288.84;;;0.86;70.48
19508;BME280;40157;42.566;27.526;2023-02-14T04:06:00;102291.16;;;0.94;70.30
19508;BME280;40157;42.566;27.526;2023-02-14T04:08:01;102281.91;;;0.85;70.20
19508;BME280;40157;42.566;27.526;2023-02-14T04:10:01;102279.31;;;0.85;70.46
19508;BME280;40157;42.566;27.526;2023-02-14T04:12:02;102286.56;;;0.79;70.63
19508;BME280;40157;42.566;27.526;2023-02-14T04:14:03;102275.63;;;0.61;70.83
19508;BME280;40157;42.566;27.526;2023-02-14T04:16:04;102279.19;;;0.84;70.78
19508;BME280;40157;42.566;27.526;2023-02-14T04:18:05;102274.28;;;0.87;70.67
19508;BME280;40157;42.566;27.526;2023-02-14T04:20:24;102245.00;;;0.76;69.98
19508;BME280;40157;42.566;27.526;2023-02-14T04:22:25;102279.66;;;1.00;70.20
19508;BME280;40157;42.566;27.526;2023-02-14T04:24:26;102271.22;;;1.03;69.89
19508;BME280;40157;42.566;27.526;2023-02-14T04:26:27;102286.41;;;1.20;69.28
19508;BME280;40157;42.566;27.526;2023-02-14T04:28:27;102285.06;;;1.25;68.92
19508;BME280;40157;42.566;27.526;2023-02-14T04:30:28;102285.31;;;1.28;68.85
19508;BME280;40157;42.566;27.526;2023-02-14T04:32:28;102289.41;;;1.37;68.74
19508;BME280;40157;42.566;27.526;2023-02-14T04:34:29;102283.44;;;1.38;68.42
19508;BME280;40157;42.566;27.526;2023-02-14T04:36:29;102259.72;;;1.32;68.16
19508;BME280;40157;42.566;27.526;2023-02-14T04:38:31;102261.28;;;1.29;68.16
19508;BME280;40157;42.566;27.526;2023-02-14T04:40:31;102276.38;;;1.35;67.90
19508;BME280;40157;42.566;27.526;2023-02-14T04:42:32;102253.16;;;1.25;68.02
19508;BME280;40157;42.566;27.526;2023-02-14T04:44:33;102261.28;;;1.29;68.06
19508;BME280;40157;42.566;27.526;2023-02-14T04:46:34;102284.94;;;1.46;67.81
19508;BME280;40157;42.566;27.526;2023-02-14T04:48:34;102272.34;;;1.39;67.74
19508;BME280;40157;42.566;27.526;2023-02-14T04:50:35;102263.97;;;1.31;68.30
19508;BME280;40157;42.566;27.526;2023-02-14T04:52:35;102261.81;;;1.25;67.96
19508;BME280;40157;42.566;27.526;2023-02-14T04:54:36;102252.50;;;1.27;68.08
19508;BME280;40157;42.566;27.526;2023-02-14T04:56:36;102257.38;;;1.35;68.57
19508;BME280;40157;42.566;27.526;2023-02-14T04:58:37;102260.19;;;1.38;68.54
19508;BME280;40157;42.566;27.526;2023-02-14T05:00:37;102236.50;;;1.21;68.58
19508;BME280;40157;42.566;27.526;2023-02-14T05:02:37;102251.63;;;1.27;68.81
19508;BME280;40157;42.566;27.526;2023-02-14T05:04:38;102273.19;;;1.27;69.05
19508;BME280;40157;42.566;27.526;2023-02-14T05:06:39;102272.28;;;1.27;69.51
19508;BME280;40157;42.566;27.526;2023-02-14T05:08:39;102237.13;;;1.07;69.33
19508;BME280;40157;42.566;27.526;2023-02-14T05:10:39;102261.69;;;1.24;69.38
19508;BME280;40157;42.566;27.526;2023-02-14T05:12:40;102242.06;;;1.04;69.75
19508;BME280;40157;42.566;27.526;2023-02-14T05:14:40;102252.75;;;1.08;70.11
19508;BME280;40157;42.566;27.526;2023-02-14T05:16:41;102238.91;;;1.08;69.96
19508;BME280;40157;42.566;27.526;2023-02-14T05:18:41;102261.03;;;1.26;69.75
19508;BME280;40157;42.566;27.526;2023-02-14T05:20:42;102255.59;;;1.34;70.06
19508;BME280;40157;42.566;27.526;2023-02-14T05:22:42;102271.44;;;1.38;69.61
19508;BME280;40157;42.566;27.526;2023-02-14T05:24:42;102272.66;;;1.32;69.55
19508;BME280;40157;42.566;27.526;2023-02-14T05:26:43;102274.19;;;1.29;69.73
19508;BME280;40157;42.566;27.526;2023-02-14T05:28:44;102290.13;;;1.46;69.55
19508;BME280;40157;42.566;27.526;2023-02-14T05:30:45;102302.47;;;1.38;69.27
19508;BME280;40157;42.566;27.526;2023-02-14T05:32:46;102289.44;;;1.26;69.53
19508;BME280;40157;42.566;27.526;2023-02-14T05:34:47;102263.91;;;1.19;69.70
19508;BME280;40157;42.566;27.526;2023-02-14T05:36:48;102269.56;;;1.25;69.86
19508;BME280;40157;42.566;27.526;2023-02-14T05:38:48;102263.66;;;1.16;69.93
19508;BME280;40157;42.566;27.526;2023-02-14T05:40:49;102272.88;;;1.13;70.58
19508;BME280;40157;42.566;27.526;2023-02-14T05:42:51;102258.88;;;0.99;70.85
19508;BME280;40157;42.566;27.526;2023-02-14T05:44:52;102284.63;;;1.09;71.56
19508;BME280;40157;42.566;27.526;2023-02-14T05:46:52;102269.72;;;0.95;71.60
19508;BME280;40157;42.566;27.526;2023-02-14T05:48:54;102287.47;;;1.12;71.63
19508;BME280;40157;42.566;27.526;2023-02-14T05:50:54;102266.31;;;1.06;72.09
19508;BME280;40157;42.566;27.526;2023-02-14T05:52:55;102288.72;;;1.17;72.21
19508;BME280;40157;42.566;27.526;2023-02-14T05:54:55;102299.25;;;1.31;72.28
19508;BME280;40157;42.566;27.526;2023-02-14T05:56:56;102290.75;;;1.32;72.38
19508;BME280;40157;42.566;27.526;2023-02-14T05:58:56;102290.91;;;1.45;72.21
19508;BME280;40157;42.566;27.526;2023-02-14T06:00:57;102314.56;;;1.61;72.00
19508;BME280;40157;42.566;27.526;2023-02-14T06:02:59;102311.38;;;1.76;71.69
19508;BME280;40157;42.566;27.526;2023-02-14T06:05:00;102302.41;;;1.82;71.36
19508;BME280;40157;42.566;27.526;2023-02-14T06:07:00;102307.75;;;1.96;71.02
19508;BME280;40157;42.566;27.526;2023-02-14T06:09:01;102295.72;;;1.96;70.83
19508;BME280;40157;42.566;27.526;2023-02-14T06:11:01;102292.84;;;2.03;70.66
19508;BME280;40157;42.566;27.526;2023-02-14T06:13:02;102284.75;;;2.11;70.52
19508;BME280;40157;42.566;27.526;2023-02-14T06:15:07;102289.69;;;2.19;70.22
19508;BME280;40157;42.566;27.526;2023-02-14T06:17:08;102302.59;;;2.42;69.86
19508;BME280;40157;42.566;27.526;2023-02-14T06:19:09;102294.63;;;3.97;88.70
19508;BME280;40157;42.566;27.526;2023-02-14T06:21:09;102296.53;;;5.18;94.81
19508;BME280;40157;42.566;27.526;2023-02-14T06:23:10;102293.97;;;5.74;96.85
19508;BME280;40157;42.566;27.526;2023-02-14T06:25:10;102295.34;;;5.69;93.94
19508;BME280;40157;42.566;27.526;2023-02-14T06:27:11;102280.91;;;5.31;89.04
19508;BME280;40157;42.566;27.526;2023-02-14T06:29:11;102291.03;;;5.13;84.92
19508;BME280;40157;42.566;27.526;2023-02-14T06:31:16;102299.50;;;5.11;80.68
19508;BME280;40157;42.566;27.526;2023-02-14T06:33:16;102296.44;;;5.03;76.67
19508;BME280;40157;42.566;27.526;2023-02-14T06:35:17;102282.53;;;4.89;73.44
19508;BME280;40157;42.566;27.526;2023-02-14T06:37:17;102285.34;;;4.92;71.52
19508;BME280;40157;42.566;27.526;2023-02-14T06:39:19;102280.56;;;4.85;69.79
19508;BME280;40157;42.566;27.526;2023-02-14T06:41:19;102274.94;;;4.79;68.52
19508;BME280;40157;42.566;27.526;2023-02-14T06:43:20;102300.53;;;4.86;66.95
19508;BME280;40157;42.566;27.526;2023-02-14T06:45:20;102293.84;;;4.90;66.60
19508;BME280;40157;42.566;27.526;2023-02-14T06:47:21;102287.63;;;4.88;66.52
19508;BME280;40157;42.566;27.526;2023-02-14T06:49:21;102285.13;;;4.89;64.91
19508;BME280;40157;42.566;27.526;2023-02-14T06:51:23;102290.13;;;4.86;63.45
19508;BME280;40157;42.566;27.526;2023-02-14T06:53:23;102289.56;;;4.77;63.11
19508;BME280;40157;42.566;27.526;2023-02-14T06:55:24;102255.78;;;4.37;63.75
19508;BME280;40157;42.566;27.526;2023-02-14T06:57:24;102259.31;;;4.12;64.31
19508;BME280;40157;42.566;27.526;2023-02-14T06:59:25;102289.59;;;4.12;65.23
19508;BME280;40157;42.566;27.526;2023-02-14T07:01:25;102289.28;;;3.82;65.71
19508;BME280;40157;42.566;27.526;2023-02-14T07:03:27;102289.38;;;3.83;66.13
19508;BME280;40157;42.566;27.526;2023-02-14T07:05:27;102286.38;;;3.77;66.39
19508;BME280;40157;42.566;27.526;2023-02-14T07:07:28;102305.91;;;3.72;66.44
19508;BME280;40157;42.566;27.526;2023-02-14T07:09:28;102265.50;;;3.50;67.03
19508;BME280;40157;42.566;27.526;2023-02-14T07:11:29;102286.81;;;3.46;66.65
19508;BME280;40157;42.566;27.526;2023-02-14T07:13:29;102298.97;;;3.47;67.34
19508;BME280;40157;42.566;27.526;2023-02-14T07:15:30;102297.09;;;3.45;67.03
19508;BME280;40157;42.566;27.526;2023-02-14T07:17:31;102244.53;;;3.22;67.18
19508;BME280;40157;42.566;27.526;2023-02-14T07:19:31;102275.31;;;3.43;67.58
19508;BME280;40157;42.566;27.526;2023-02-14T07:21:32;102251.59;;;3.37;67.24
19508;BME280;40157;42.566;27.526;2023-02-14T07:23:32;102242.59;;;3.31;67.08
19508;BME280;40157;42.566;27.526;2023-02-14T07:25:32;102281.50;;;3.57;67.36
19508;BME280;40157;42.566;27.526;2023-02-14T07:27:33;102262.31;;;3.55;66.62
19508;BME280;40157;42.566;27.526;2023-02-14T07:29:34;102270.19;;;3.56;66.55
19508;BME280;40157;42.566;27.526;2023-02-14T07:31:35;102288.41;;;3.69;67.21
19508;BME280;40157;42.566;27.526;2023-02-14T07:33:35;102274.94;;;3.62;66.73
19508;BME280;40157;42.566;27.526;2023-02-14T07:35:35;102285.72;;;3.68;67.01
19508;BME280;40157;42.566;27.526;2023-02-14T07:37:36;102293.38;;;3.78;66.63
19508;BME280;40157;42.566;27.526;2023-02-14T07:39:36;102283.56;;;3.74;67.06
19508;BME280;40157;42.566;27.526;2023-02-14T07:41:37;102275.16;;;3.65;66.41
19508;BME280;40157;42.566;27.526;2023-02-14T07:43:37;102297.56;;;3.89;67.10
19508;BME280;40157;42.566;27.526;2023-02-14T07:45:38;102293.53;;;3.93;66.74
19508;BME280;40157;42.566;27.526;2023-02-14T07:47:39;102290.84;;;4.05;66.23
19508;BME280;40157;42.566;27.526;2023-02-14T07:49:39;102292.28;;;4.13;65.98
19508;BME280;40157;42.566;27.526;2023-02-14T07:51:40;102297.66;;;4.16;66.11
19508;BME280;40157;42.566;27.526;2023-02-14T07:53:40;102293.50;;;4.18;66.28
19508;BME280;40157;42.566;27.526;2023-02-14T07:55:41;102293.00;;;4.24;66.17
19508;BME280;40157;42.566;27.526;2023-02-14T07:57:41;102276.34;;;4.34;65.80
19508;BME280;40157;42.566;27.526;2023-02-14T07:59:42;102289.22;;;4.45;65.60
19508;BME280;40157;42.566;27.526;2023-02-14T08:01:42;102262.94;;;4.41;65.13
19508;BME280;40157;42.566;27.526;2023-02-14T08:03:43;102284.34;;;4.50;65.13
19508;BME280;40157;42.566;27.526;2023-02-14T08:05:47;102259.16;;;4.49;64.71
19508;BME280;40157;42.566;27.526;2023-02-14T08:07:56;102285.75;;;4.72;64.29
19508;BME280;40157;42.566;27.526;2023-02-14T08:09:56;102285.03;;;4.74;63.78
19508;BME280;40157;42.566;27.526;2023-02-14T08:11:57;102277.56;;;4.79;63.87
19508;BME280;40157;42.566;27.526;2023-02-14T08:14:16;102277.97;;;4.85;63.65
19508;BME280;40157;42.566;27.526;2023-02-14T08:16:16;102280.16;;;4.92;63.58
19508;BME280;40157;42.566;27.526;2023-02-14T08:18:18;102255.66;;;4.89;63.49
19508;BME280;40157;42.566;27.526;2023-02-14T08:20:18;102276.94;;;5.10;63.07
19508;BME280;40157;42.566;27.526;2023-02-14T08:22:19;102248.97;;;4.92;63.12
19508;BME280;40157;42.566;27.526;2023-02-14T08:24:19;102272.34;;;5.06;63.39
19508;BME280;40157;42.566;27.526;2023-02-14T08:26:20;102280.94;;;5.18;63.18
19508;BME280;40157;42.566;27.526;2023-02-14T08:28:20;102263.09;;;5.24;63.25
19508;BME280;40157;42.566;27.526;2023-02-14T08:30:21;102258.28;;;5.30;63.05
19508;BME280;40157;42.566;27.526;2023-02-14T08:32:22;102254.88;;;5.31;62.74
19508;BME280;40157;42.566;27.526;2023-02-14T08:34:22;102257.66;;;5.34;62.83
19508;BME280;40157;42.566;27.526;2023-02-14T08:36:23;102260.59;;;5.54;62.74
19508;BME280;40157;42.566;27.526;2023-02-14T08:38:23;102254.94;;;5.61;62.95
19508;BME280;40157;42.566;27.526;2023-02-14T08:40:25;102254.66;;;5.70;63.01
19508;BME280;40157;42.566;27.526;2023-02-14T08:42:25;102264.91;;;5.82;62.38
19508;BME280;40157;42.566;27.526;2023-02-14T08:44:25;102240.84;;;5.86;62.00
19508;BME280;40157;42.566;27.526;2023-02-14T08:46:26;102260.63;;;5.97;61.88
19508;BME280;40157;42.566;27.526;2023-02-14T08:48:27;102249.97;;;6.07;62.13
19508;BME280;40157;42.566;27.526;2023-02-14T08:50:27;102245.50;;;6.20;61.66
19508;BME280;40157;42.566;27.526;2023-02-14T08:52:28;102243.03;;;6.38;61.31
19508;BME280;40157;42.566;27.526;2023-02-14T08:54:28;102235.06;;;6.50;60.70
19508;BME280;40157;42.566;27.526;2023-02-14T08:56:29;102234.50;;;6.55;59.64
19508;BME280;40157;42.566;27.526;2023-02-14T08:58:30;102240.84;;;6.75;59.72
19508;BME280;40157;42.566;27.526;2023-02-14T09:00:32;102238.81;;;6.86;59.18
19508;BME280;40157;42.566;27.526;2023-02-14T09:02:32;102246.09;;;6.92;58.93
19508;BME280;40157;42.566;27.526;2023-02-14T09:04:34;102223.91;;;6.83;59.17
19508;BME280;40157;42.566;27.526;2023-02-14T09:06:37;102229.97;;;6.99;58.29
19508;BME280;40157;42.566;27.526;2023-02-14T09:08:38;102235.22;;;7.15;57.54
19508;BME280;40157;42.566;27.526;2023-02-14T09:10:38;102192.84;;;7.03;57.59
19508;BME280;40157;42.566;27.526;2023-02-14T09:12:40;102221.78;;;7.24;57.48
19508;BME280;40157;42.566;27.526;2023-02-14T09:14:42;102230.75;;;7.46;57.22
19508;BME280;40157;42.566;27.526;2023-02-14T09:16:43;102236.56;;;7.56;56.87
19508;BME280;40157;42.566;27.526;2023-02-14T09:18:44;102235.97;;;7.62;56.72
19508;BME280;40157;42.566;27.526;2023-02-14T09:20:45;102225.09;;;7.71;56.04
19508;BME280;40157;42.566;27.526;2023-02-14T09:22:45;102224.63;;;7.78;55.21
19508;BME280;40157;42.566;27.526;2023-02-14T09:24:46;102222.41;;;7.86;55.08
19508;BME280;40157;42.566;27.526;2023-02-14T09:26:46;102221.00;;;7.92;54.87
19508;BME280;40157;42.566;27.526;2023-02-14T09:28:47;102191.31;;;7.90;54.90
19508;BME280;40157;42.566;27.526;2023-02-14T09:30:48;102208.06;;;8.12;54.80
19508;BME280;40157;42.566;27.526;2023-02-14T09:32:50;102197.75;;;8.15;53.71
19508;BME280;40157;42.566;27.526;2023-02-14T09:34:51;102179.41;;;8.13;53.01
19508;BME280;40157;42.566;27.526;2023-02-14T09:36:51;102205.78;;;8.36;52.99
19508;BME280;40157;42.566;27.526;2023-02-14T09:38:52;102200.38;;;8.49;52.96
19508;BME280;40157;42.566;27.526;2023-02-14T09:40:52;102191.84;;;8.54;52.32
19508;BME280;40157;42.566;27.526;2023-02-14T09:43:08;102195.94;;;8.66;51.91
19508;BME280;40157;42.566;27.526;2023-02-14T09:45:26;102190.47;;;8.80;51.77
19508;BME280;40157;42.566;27.526;2023-02-14T09:49:50;102180.72;;;8.95;49.65
19508;BME280;40157;42.566;27.526;2023-02-14T09:51:52;102166.34;;;9.05;48.56
19508;BME280;40157;42.566;27.526;2023-02-14T09:54:15;102178.53;;;9.24;47.44
19508;BME280;40157;42.566;27.526;2023-02-14T10:01:12;102165.88;;;9.53;47.20
19508;BME280;40157;42.566;27.526;2023-02-14T10:07:56;102168.63;;;9.77;45.98
19508;BME280;40157;42.566;27.526;2023-02-14T10:12:15;102136.91;;;9.69;45.04
19508;BME280;40157;42.566;27.526;2023-02-14T10:14:25;102160.41;;;9.89;45.14
19508;BME280;40157;42.566;27.526;2023-02-14T10:16:49;102144.47;;;9.84;44.82
19508;BME280;40157;42.566;27.526;2023-02-14T10:19:10;102144.69;;;9.89;45.07
19508;BME280;40157;42.566;27.526;2023-02-14T10:21:22;102143.28;;;9.97;45.08
19508;BME280;40157;42.566;27.526;2023-02-14T10:23:45;102153.31;;;10.07;44.85
19508;BME280;40157;42.566;27.526;2023-02-14T10:25:55;102138.44;;;10.06;44.47
19508;BME280;40157;42.566;27.526;2023-02-14T10:28:00;102129.59;;;10.04;44.60
19508;BME280;40157;42.566;27.526;2023-02-14T10:30:01;102140.47;;;10.13;44.66
19508;BME280;40157;42.566;27.526;2023-02-14T10:32:03;102125.19;;;10.24;44.77
19508;BME280;40157;42.566;27.526;2023-02-14T10:34:18;102130.66;;;10.30;43.71
19508;BME280;40157;42.566;27.526;2023-02-14T10:36:44;102124.22;;;10.43;43.82
19508;BME280;40157;42.566;27.526;2023-02-14T10:44:19;102111.25;;;10.93;43.76
19508;BME280;40157;42.566;27.526;2023-02-14T10:46:39;102110.19;;;11.12;42.75
19508;BME280;40157;42.566;27.526;2023-02-14T10:48:50;102118.50;;;11.24;41.70
19508;BME280;40157;42.566;27.526;2023-02-14T10:53:33;102107.19;;;11.51;41.82
19508;BME280;40157;42.566;27.526;2023-02-14T10:56:19;102083.13;;;11.39;40.97
19508;BME280;40157;42.566;27.526;2023-02-14T10:58:21;102091.38;;;11.50;41.30
19508;BME280;40157;42.566;27.526;2023-02-14T11:00:25;102103.56;;;11.73;40.74
19508;BME280;40157;42.566;27.526;2023-02-14T11:02:31;102071.81;;;11.67;40.80
19508;BME280;40157;42.566;27.526;2023-02-14T11:04:34;102082.69;;;11.78;40.19
19508;BME280;40157;42.566;27.526;2023-02-14T11:06:34;102084.53;;;11.80;40.38
19508;BME280;40157;42.566;27.526;2023-02-14T11:08:44;102073.34;;;11.86;40.68
19508;BME280;40157;42.566;27.526;2023-02-14T11:10:44;102093.25;;;12.05;40.01
19508;BME280;40157;42.566;27.526;2023-02-14T11:12:45;102082.00;;;12.09;40.53
19508;BME280;40157;42.566;27.526;2023-02-14T11:14:46;102065.41;;;12.12;40.11
19508;BME280;40157;42.566;27.526;2023-02-14T11:16:47;102063.13;;;12.23;39.08
19508;BME280;40157;42.566;27.526;2023-02-14T11:21:12;102081.06;;;12.36;39.32
19508;BME280;40157;42.566;27.526;2023-02-14T11:23:18;102091.91;;;12.47;38.22
19508;BME280;40157;42.566;27.526;2023-02-14T11:25:24;102090.88;;;12.42;37.89
19508;BME280;40157;42.566;27.526;2023-02-14T11:27:25;102095.34;;;12.44;37.73
19508;BME280;40157;42.566;27.526;2023-02-14T11:31:39;102056.31;;;12.29;36.95
19508;BME280;40157;42.566;27.526;2023-02-14T11:33:42;102045.84;;;12.31;37.17
19508;BME280;40157;42.566;27.526;2023-02-14T11:35:49;102066.63;;;12.52;38.05
19508;BME280;40157;42.566;27.526;2023-02-14T11:37:53;102062.41;;;12.57;37.88
19508;BME280;40157;42.566;27.526;2023-02-14T11:39:56;102070.81;;;12.75;36.96
19508;BME280;40157;42.566;27.526;2023-02-14T11:42:00;102070.91;;;12.78;37.27
19508;BME280;40157;42.566;27.526;2023-02-14T11:44:14;102059.19;;;12.67;36.44
19508;BME280;40157;42.566;27.526;2023-02-14T11:48:24;102023.13;;;12.63;37.27
19508;BME280;40157;42.566;27.526;2023-02-14T11:50:25;102046.63;;;12.89;36.91
19508;BME280;40157;42.566;27.526;2023-02-14T11:52:29;102035.19;;;12.87;36.24
19508;BME280;40157;42.566;27.526;2023-02-14T11:56:53;102035.69;;;13.05;36.46
19508;BME280;40157;42.566;27.526;2023-02-14T11:59:01;102038.50;;;13.11;36.12
19508;BME280;40157;42.566;27.526;2023-02-14T12:01:03;102033.41;;;13.18;36.51